MDPP/POP METAR and TAF weather

Enter ICAO airport designator
Station Type Date Time Source
MDPP METAR 2021/07/31 00:00 UTC NOAA

MDPP 310000Z 10010KT 9999 FEW018 27/26 Q1017


Station Type Date Time Source
MDPP Decoded METAR 2021/07/31 00:00 UTC NOAA

Puerto Plata International, Dominican Republic (MDPP) 19-45N 070-33W
Jul 30, 2021 - 08:00 PM EDT / 2021.07.31 0000 UTC
Wind: from the E (100 degrees) at 12 MPH (10 KT):0
Visibility: greater than 7 mile(s):0
Sky conditions: mostly clear
Temperature: 80 F (27 C)
Dew Point: 78 F (26 C)
Relative Humidity: 94%
Pressure (altimeter): 30.03 in. Hg (1017 hPa)
ob: MDPP 310000Z 10010KT 9999 FEW018 27/26 Q1017
cycle: 0

Station Type Date Time Source
MDPP TAF 2021/07/30 18:56 UTC NOAA

TAF MDPP 301600Z 3018/3118 15015KT 9999 SCT022 PROB30 3018/3100 7000-TSRA FEW016CB BKN017

Example: see airport list